This demonstration page uses our WeatherBlox Daily Observations layout. Learn more.

Hourly Observations for October 29, 2017

Temp ( °F °C ) Dew Point ( °F °C ) Humidity (%) Winds ( mph kmh ) Pressure ( in mb ) Visibility ( mi km ) Precip ( " mm )
12:54 am 00:54 Mostly Clear 40 4.4 7 -13.9 25 25 undefined N/A 29.88 1012 10 16.09344 0 0
1:54 am 01:54 Clear 37 2.8 9 -12.8 31 31 undefined N/A 29.88 1012 10 16.09344 0 0
2:54 am 02:54 Clear 36 2.2 11 -11.7 35 35 undefined N/A 29.85 1011 10 16.09344 0 0
3:54 am 03:54 Clear 30 -1.1 16 -8.9 56 56 undefined N/A 29.85 1011 10 16.09344 0 0
4:54 am 04:54 Mostly Clear 31 -0.6 16 -8.9 54 54 undefined N/A 29.83 1010 10 16.09344 0 0
5:54 am 05:54 Mostly Clear 31 -0.6 15 -9.4 52 52 S 5 7 29.8 1009 10 16.09344 0 0
6:54 am 06:54 Clear 31 -0.6 17 -8.3 56 56 S 5 7 29.83 1010 10 16.09344 0 0
7:54 am 07:54 Clear 29 -1.7 18 -7.8 63 63 S 6 9 29.8 1009 10 16.09344 0 0
8:54 am 08:54 Sunny 35 1.7 21 -6.1 57 57 S 7 11 29.8 1009 10 16.09344 0 0
9:54 am 09:54 Partly Cloudy 40 4.4 21 -6.1 47 47 SSW 7 11 29.77 1008 10 16.09344 0 0
10:54 am 10:54 Sunny 46 7.8 27 -2.8 47 47 S 7 11 29.77 1008 10 16.09344 0 0
11:54 am 11:54 Sunny 53 11.7 29 -1.7 40 40 SSW 5 7 29.71 1006 10 16.09344 0 0
12:54 pm 12:54 Sunny 56 13.3 31 -0.6 39 39 SSW 9 15 29.68 1005 10 16.09344 0 0
1:54 pm 13:54 Sunny N/A N/A N/A SSW 10 17 N/A 10 16.09344 0 0
2:54 pm 14:54 Sunny 70 21.1 36 2.2 29 29 WSW 9 15 29.65 1004 10 16.09344 0 0
3:54 pm 15:54 Sunny 71 21.7 37 2.8 29 29 SW 9 15 29.62 1003 10 16.09344 0 0
4:54 pm 16:54 Sunny 71 21.7 38 3.3 30 30 WSW 6 9 29.65 1004 10 16.09344 0 0
5:54 pm 17:54 Partly Cloudy 61 16.1 36 2.2 39 39 NW 12 19 29.71 1006 10 16.09344 0 0
6:54 pm 18:54 Clear 55 12.8 40 4.4 57 57 N 24 39 29.8 1009 10 16.09344 0 0
7:54 pm 19:54 Clear 53 11.7 41 5 64 64 N 23 37 29.85 1011 10 16.09344 0 0
8:54 pm 20:54 Mostly Clear 53 11.7 41 5 64 64 N 18 30 29.88 1012 10 16.09344 0 0
9:54 pm 21:54 Partly Cloudy 52 11.1 40 4.4 64 64 undefined N/A 29.88 1012 10 16.09344 0 0
10:54 pm 22:54 Cloudy 52 11.1 37 2.8 57 57 undefined N/A 29.91 1013 10 16.09344 0 0
11:54 pm 23:54 Partly Cloudy 50 10 37 2.8 61 61 undefined N/A 29.88 1012 10 16.09344 0 0

Powered by AerisWeather